createdAt,value
2023-03-25T00:02:12.888Z,99832.56
2023-03-25T00:04:39.345Z,99831.97
2023-03-25T00:07:05.757Z,99826.59
2023-03-25T00:09:32.200Z,99824.75
2023-03-25T00:11:58.526Z,99821.22
2023-03-25T00:14:24.889Z,99818.56
2023-03-25T00:16:51.314Z,99820.19
2023-03-25T00:19:18.018Z,99801.66
2023-03-25T00:21:44.357Z,99796.53
2023-03-25T00:24:10.768Z,99802.69
2023-03-25T00:26:37.205Z,99808.06
2023-03-25T00:29:03.832Z,99805.66
2023-03-25T00:31:30.266Z,99808.06
2023-03-25T00:33:56.635Z,99806.44
2023-03-25T00:36:23.251Z,99803.28
2023-03-25T00:38:49.974Z,99809.13
2023-03-25T00:41:16.303Z,99800.00
2023-03-25T00:43:42.676Z,99810.50
2023-03-25T00:46:09.223Z,99803.50
2023-03-25T00:48:35.945Z,99809.13
2023-03-25T00:51:02.580Z,99798.38
2023-03-25T00:53:28.902Z,99810.19
2023-03-25T00:55:55.477Z,99805.38
2023-03-25T00:58:21.812Z,99799.22
2023-03-25T01:00:48.165Z,99808.06
2023-03-25T01:03:14.554Z,99803.75
2023-03-25T01:05:40.981Z,99796.28
2023-03-25T01:08:07.318Z,99790.34
2023-03-25T01:10:33.763Z,99792.22
2023-03-25T01:13:00.270Z,99789.78
2023-03-25T01:15:26.732Z,99784.41
2023-03-25T01:17:53.221Z,99780.91
2023-03-25T01:20:19.678Z,99771.53
2023-03-25T01:22:46.366Z,99769.69
2023-03-25T01:25:12.723Z,99766.19
2023-03-25T01:27:39.494Z,99768.63
2023-03-25T01:30:06.008Z,99762.13
2023-03-25T01:32:32.422Z,99766.19
2023-03-25T01:34:59.446Z,99760.81
2023-03-25T01:37:25.806Z,99760.81
2023-03-25T01:39:52.149Z,99754.88
2023-03-25T01:42:18.506Z,99744.22
2023-03-25T01:44:45.012Z,99732.09
2023-03-25T01:47:11.566Z,99737.53
2023-03-25T01:49:37.965Z,99746.84
2023-03-25T01:52:04.746Z,99738.53
2023-03-25T01:54:31.635Z,99743.09
2023-03-25T01:56:58.480Z,99744.47
2023-03-25T01:59:24.965Z,99740.00
2023-03-25T02:01:51.324Z,99744.69
2023-03-25T02:04:19.419Z,99739.91
2023-03-25T02:06:46.180Z,99730.78
2023-03-25T02:09:12.932Z,99735.91
2023-03-25T02:11:39.562Z,99724.53
2023-03-25T02:14:05.953Z,99726.97
2023-03-25T02:16:32.505Z,99716.00
2023-03-25T02:18:58.936Z,99709.81
2023-03-25T02:21:25.386Z,99710.88
2023-03-25T02:23:51.738Z,99707.59
2023-03-25T02:26:18.159Z,99700.38
2023-03-25T02:28:45.141Z,99698.34
2023-03-25T02:31:11.563Z,99702.53
2023-03-25T02:33:37.953Z,99696.38
2023-03-25T02:36:04.613Z,99691.84
2023-03-25T02:38:30.974Z,99688.09
2023-03-25T02:40:57.423Z,99687.25
2023-03-25T02:43:24.192Z,99680.84
2023-03-25T02:45:50.616Z,99678.72
2023-03-25T02:48:17.554Z,99667.19
2023-03-25T02:50:43.978Z,99669.53
2023-03-25T02:53:10.536Z,99678.19
2023-03-25T02:55:36.801Z,99673.94
2023-03-25T02:58:03.318Z,99672.47
2023-03-25T03:00:29.646Z,99674.41
2023-03-25T03:02:56.026Z,99673.34
2023-03-25T03:05:22.464Z,99672.22
2023-03-25T03:07:49.325Z,99684.03
2023-03-25T03:10:15.680Z,99670.13
2023-03-25T03:12:42.086Z,99662.16
2023-03-25T03:15:08.408Z,99672.16
2023-03-25T03:17:34.813Z,99669.53
2023-03-25T03:20:01.305Z,99653.44
2023-03-25T03:22:28.499Z,99662.56
2023-03-25T03:24:54.858Z,99666.13
2023-03-25T03:27:21.498Z,99667.09
2023-03-25T03:29:47.837Z,99668.19
2023-03-25T03:32:14.173Z,99662.56
2023-03-25T03:34:40.673Z,99670.66
2023-03-25T03:37:07.085Z,99668.56
2023-03-25T03:39:33.449Z,99672.81
2023-03-25T03:42:00.231Z,99670.38
2023-03-25T03:44:27.374Z,99673.94
2023-03-25T03:46:53.676Z,99680.03
2023-03-25T03:49:20.457Z,99678.72
2023-03-25T03:51:47.151Z,99671.59
2023-03-25T03:54:13.620Z,99669.97
2023-03-25T03:56:40.968Z,99669.13
2023-03-25T03:59:07.372Z,99672.03
2023-03-25T04:01:34.050Z,99672.28
2023-03-25T04:04:01.158Z,99673.09
2023-03-25T04:06:27.529Z,99673.28
2023-03-25T04:08:54.036Z,99671.69
2023-03-25T04:11:20.501Z,99677.41
2023-03-25T04:13:47.818Z,99673.09
2023-03-25T04:16:14.214Z,99674.72
2023-03-25T04:18:40.841Z,99679.72
2023-03-25T04:21:07.157Z,99686.47
2023-03-25T04:23:33.671Z,99684.03
2023-03-25T04:26:00.049Z,99694.28
2023-03-25T04:28:26.459Z,99688.66
2023-03-25T04:30:53.264Z,99684.09
2023-03-25T04:33:19.585Z,99689.94
2023-03-25T04:35:46.233Z,99691.00
2023-03-25T04:38:13.363Z,99691.59
2023-03-25T04:40:39.708Z,99691.34
2023-03-25T04:43:06.186Z,99695.41
2023-03-25T04:45:33.089Z,99697.50
2023-03-25T04:47:59.589Z,99688.91
2023-03-25T04:50:26.090Z,99691.91
2023-03-25T04:52:52.466Z,99676.63
2023-03-25T04:55:19.711Z,99692.72
2023-03-25T04:57:46.129Z,99685.09
2023-03-25T05:00:12.554Z,99684.66
2023-03-25T05:02:38.907Z,99689.69
2023-03-25T05:05:05.312Z,99689.47
2023-03-25T05:07:31.791Z,99687.34
2023-03-25T05:09:59.006Z,99685.09
2023-03-25T05:12:25.504Z,99682.47
2023-03-25T05:14:52.053Z,99677.94
2023-03-25T05:17:18.444Z,99692.16
2023-03-25T05:19:45.454Z,99689.47
2023-03-25T05:22:12.437Z,99687.34
2023-03-25T05:24:39.106Z,99687.34
2023-03-25T05:27:05.607Z,99691.59
2023-03-25T05:29:32.626Z,99678.72
2023-03-25T05:31:59.511Z,99687.03
2023-03-25T05:34:26.171Z,99696.72
2023-03-25T05:36:52.526Z,99688.34
2023-03-25T05:39:19.033Z,99691.59
2023-03-25T05:41:46.046Z,99685.72
2023-03-25T05:44:12.520Z,99680.84
2023-03-25T05:46:39.573Z,99679.78
2023-03-25T05:49:05.938Z,99696.88
2023-03-25T05:51:32.320Z,99700.44
2023-03-25T05:53:58.957Z,99696.38
2023-03-25T05:56:25.563Z,99705.19
2023-03-25T05:58:51.883Z,99699.00
2023-03-25T06:01:31.845Z,99703.75
2023-03-25T06:04:00.032Z,99704.88
2023-03-25T06:06:27.266Z,99703.81
2023-03-25T06:08:53.608Z,99709.19
2023-03-25T06:11:20.026Z,99705.38
2023-03-25T06:13:46.446Z,99719.34
2023-03-25T06:16:12.851Z,99710.38
2023-03-25T06:18:39.245Z,99708.91
2023-03-25T06:21:05.706Z,99706.88
2023-03-25T06:23:32.113Z,99721.63
2023-03-25T06:25:58.629Z,99720.47
2023-03-25T06:28:25.560Z,99724.00
2023-03-25T06:30:52.095Z,99723.16
2023-03-25T06:33:43.047Z,99715.13
2023-03-25T06:36:05.736Z,99723.09
2023-03-25T06:38:32.521Z,99726.09
2023-03-25T06:40:59.646Z,99725.03
2023-03-25T06:43:26.081Z,99726.03
2023-03-25T06:45:52.850Z,99723.09
2023-03-25T06:48:19.824Z,99720.19
2023-03-25T06:50:46.248Z,99731.47
2023-03-25T06:53:13.273Z,99732.03
2023-03-25T06:55:39.714Z,99734.72
2023-03-25T06:58:06.169Z,99735.75
2023-03-25T07:00:32.499Z,99729.84
2023-03-25T07:02:58.882Z,99725.84
2023-03-25T07:05:25.434Z,99730.81
2023-03-25T07:07:52.040Z,99727.97
2023-03-25T07:10:18.552Z,99729.91
2023-03-25T07:12:44.931Z,99736.59
2023-03-25T07:15:11.346Z,99735.47
2023-03-25T07:17:37.732Z,99730.09
2023-03-25T07:20:04.159Z,99731.69
2023-03-25T07:22:31.211Z,99741.41
2023-03-25T07:24:57.935Z,99743.03
2023-03-25T07:27:24.220Z,99742.97
2023-03-25T07:29:50.666Z,99742.63
2023-03-25T07:32:16.974Z,99746.19
2023-03-25T07:34:43.846Z,99741.66
2023-03-25T07:37:10.287Z,99751.81
2023-03-25T07:39:36.920Z,99750.72
2023-03-25T07:42:03.273Z,99751.56
2023-03-25T07:44:30.331Z,99750.91
2023-03-25T07:46:57.337Z,99751.00
2023-03-25T07:49:24.318Z,99751.56
2023-03-25T07:51:50.640Z,99765.81
2023-03-25T07:54:17.137Z,99773.84
2023-03-25T07:56:43.676Z,99764.91
2023-03-25T07:59:10.087Z,99776.78
2023-03-25T08:01:37.096Z,99781.00
2023-03-25T08:04:03.495Z,99774.75
2023-03-25T08:06:30.008Z,99779.41
2023-03-25T08:08:56.521Z,99773.50
2023-03-25T08:11:23.206Z,99772.47
2023-03-25T08:13:49.458Z,99766.78
2023-03-25T08:16:15.880Z,99768.66
2023-03-25T08:18:42.509Z,99775.97
2023-03-25T08:21:08.972Z,99764.59
2023-03-25T08:23:35.279Z,99766.63
2023-03-25T08:26:01.633Z,99765.41
2023-03-25T08:28:28.096Z,99757.44
2023-03-25T08:30:54.440Z,99757.63
2023-03-25T08:33:20.954Z,99761.44
2023-03-25T08:35:47.476Z,99763.69
2023-03-25T08:38:13.861Z,99764.75
2023-03-25T08:40:40.213Z,99758.16
2023-03-25T08:43:06.869Z,99754.78
2023-03-25T08:45:33.254Z,99752.59
2023-03-25T08:47:59.845Z,99754.06
2023-03-25T08:50:26.348Z,99761.13
2023-03-25T08:52:53.289Z,99755.28
2023-03-25T08:55:19.727Z,99757.63
2023-03-25T08:57:46.037Z,99752.59
2023-03-25T09:00:12.415Z,99751.22
2023-03-25T09:02:38.761Z,99757.94
2023-03-25T09:05:05.189Z,99755.44
2023-03-25T09:07:31.575Z,99753.38
2023-03-25T09:09:57.900Z,99751.03
2023-03-25T09:12:24.553Z,99753.38
2023-03-25T09:14:51.034Z,99751.28
2023-03-25T09:17:17.371Z,99749.84
2023-03-25T09:19:43.734Z,99750.97
2023-03-25T09:22:10.064Z,99754.84
2023-03-25T09:24:36.469Z,99757.53
2023-03-25T09:27:03.016Z,99756.47
2023-03-25T09:29:29.324Z,99757.63
2023-03-25T09:31:55.782Z,99746.47
2023-03-25T09:34:22.215Z,99739.97
2023-03-25T09:36:48.695Z,99745.75
2023-03-25T09:39:15.032Z,99749.50
2023-03-25T09:41:41.765Z,99738.75
2023-03-25T09:44:08.178Z,99753.13
2023-03-25T09:46:35.011Z,99754.84
2023-03-25T09:49:01.415Z,99754.03
2023-03-25T09:51:27.838Z,99757.84
2023-03-25T09:53:54.236Z,99766.50
2023-03-25T09:56:20.600Z,99758.59
2023-03-25T09:58:46.988Z,99761.56
2023-03-25T10:01:13.520Z,99762.94
2023-03-25T10:03:40.037Z,99760.19
2023-03-25T10:06:06.511Z,99764.66
2023-03-25T10:08:33.001Z,99767.94
2023-03-25T10:10:59.311Z,99763.28
2023-03-25T10:13:25.645Z,99760.50
2023-03-25T10:15:52.300Z,99752.47
2023-03-25T10:18:18.790Z,99760.91
2023-03-25T10:20:45.288Z,99761.97
2023-03-25T10:23:11.919Z,99757.94
2023-03-25T10:25:38.299Z,99761.41
2023-03-25T10:28:04.630Z,99752.72
2023-03-25T10:30:30.961Z,99750.91
2023-03-25T10:32:57.528Z,99753.22
2023-03-25T10:35:24.064Z,99742.78
2023-03-25T10:37:50.454Z,99747.09
2023-03-25T10:40:16.907Z,99747.19
2023-03-25T10:42:43.812Z,99748.81
2023-03-25T10:45:10.335Z,99758.72
2023-03-25T10:47:37.118Z,99758.97
2023-03-25T10:50:03.591Z,99755.31
2023-03-25T10:52:29.967Z,99763.91
2023-03-25T10:54:56.427Z,99755.31
2023-03-25T10:57:22.859Z,99755.97
2023-03-25T10:59:49.409Z,99749.34
2023-03-25T11:02:15.810Z,99746.69
2023-03-25T11:04:42.457Z,99748.63
2023-03-25T11:07:09.000Z,99728.53
2023-03-25T11:09:35.551Z,99730.91
2023-03-25T11:12:01.884Z,99722.28
2023-03-25T11:14:28.436Z,99719.03
2023-03-25T11:22:36.818Z,99728.66
2023-03-25T11:25:03.200Z,99724.78
2023-03-25T11:30:19.776Z,99726.69
2023-03-25T11:32:46.193Z,99723.94
2023-03-25T11:37:57.482Z,99712.31
2023-03-25T11:40:24.918Z,99709.88
2023-03-25T11:42:51.250Z,99707.88
2023-03-25T11:45:17.637Z,99703.06
2023-03-25T11:47:44.462Z,99707.78
2023-03-25T11:50:10.848Z,99704.38
2023-03-25T11:52:37.258Z,99703.91
2023-03-25T11:55:03.632Z,99710.41
2023-03-25T11:57:32.190Z,99697.94
2023-03-25T11:59:59.063Z,99703.38
2023-03-25T12:02:25.557Z,99694.13
2023-03-25T12:04:51.947Z,99701.69
2023-03-25T12:07:18.411Z,99681.72
2023-03-25T12:09:44.740Z,99685.25
2023-03-25T12:12:11.502Z,99687.88
2023-03-25T12:14:37.837Z,99673.53
2023-03-25T12:17:04.295Z,99683.28
2023-03-25T12:19:30.795Z,99675.34
2023-03-25T12:21:57.284Z,99669.44
2023-03-25T12:24:23.796Z,99672.66
2023-03-25T12:26:50.269Z,99684.66
2023-03-25T12:29:16.874Z,99671.47
2023-03-25T12:31:43.331Z,99672.84
2023-03-25T12:34:09.852Z,99671.47
2023-03-25T12:36:36.335Z,99669.09
2023-03-25T12:39:03.387Z,99674.22
2023-03-25T12:41:29.867Z,99665.84
2023-03-25T12:43:56.150Z,99665.97
2023-03-25T12:46:22.782Z,99667.94
2023-03-25T12:48:49.155Z,99668.31
2023-03-25T12:51:16.007Z,99663.28
2023-03-25T12:53:42.307Z,99671.78
2023-03-25T12:56:10.748Z,99673.38
2023-03-25T12:58:38.083Z,99674.72
2023-03-25T13:01:04.520Z,99686.38
2023-03-25T13:03:32.045Z,99683.94
2023-03-25T13:05:58.659Z,99677.84
2023-03-25T13:08:25.191Z,99662.28
2023-03-25T13:10:52.011Z,99663.13
2023-03-25T13:13:18.521Z,99667.66
2023-03-25T13:15:45.042Z,99646.84
2023-03-25T13:18:11.425Z,99643.66
2023-03-25T13:20:38.083Z,99641.75
2023-03-25T13:23:04.581Z,99631.03
2023-03-25T13:25:31.134Z,99637.28
2023-03-25T13:27:57.546Z,99630.28
2023-03-25T13:30:23.939Z,99631.41
2023-03-25T13:32:50.456Z,99630.59
2023-03-25T13:35:16.947Z,99629.28
2023-03-25T13:37:43.321Z,99622.06
2023-03-25T13:40:09.692Z,99632.28
2023-03-25T13:42:36.127Z,99651.63
2023-03-25T13:45:03.275Z,99656.19
2023-03-25T13:47:29.645Z,99657.56
2023-03-25T13:49:56.020Z,99649.53
2023-03-25T13:52:22.686Z,99644.97
2023-03-25T13:54:49.142Z,99635.38
2023-03-25T13:57:15.432Z,99638.59
2023-03-25T13:59:41.839Z,99637.31
2023-03-25T14:02:08.458Z,99628.97
2023-03-25T14:04:35.321Z,99627.94
2023-03-25T14:07:01.661Z,99623.94
2023-03-25T14:09:28.197Z,99616.41
2023-03-25T14:11:54.555Z,99623.16
2023-03-25T14:14:20.920Z,99617.50
2023-03-25T14:16:47.276Z,99606.06
2023-03-25T14:19:13.645Z,99620.88
2023-03-25T14:21:40.322Z,99626.63
2023-03-25T14:24:06.584Z,99625.34
2023-03-25T14:26:33.047Z,99634.28
2023-03-25T14:28:59.412Z,99621.97
2023-03-25T14:31:25.812Z,99622.00
2023-03-25T14:33:52.577Z,99618.28
2023-03-25T14:36:18.975Z,99629.06
2023-03-25T14:38:45.557Z,99627.75
2023-03-25T14:41:12.181Z,99623.22
2023-03-25T14:43:38.745Z,99625.41
2023-03-25T14:46:05.183Z,99624.38
2023-03-25T14:48:31.696Z,99626.56
2023-03-25T14:50:58.384Z,99621.22
2023-03-25T14:53:24.750Z,99614.28
2023-03-25T14:55:51.250Z,99621.56
2023-03-25T14:58:17.611Z,99616.47
2023-03-25T15:00:43.978Z,99616.50
2023-03-25T15:03:10.273Z,99607.09
2023-03-25T15:05:36.733Z,99619.78
2023-03-25T15:08:03.450Z,99603.09
2023-03-25T15:10:29.901Z,99605.03
2023-03-25T15:12:56.594Z,99604.75
2023-03-25T15:15:23.048Z,99602.34
2023-03-25T15:17:49.525Z,99594.59
2023-03-25T15:20:15.898Z,99603.19
2023-03-25T15:22:42.274Z,99616.13
2023-03-25T15:25:09.263Z,99643.31
2023-03-25T15:27:35.837Z,99647.38
2023-03-25T15:30:02.260Z,99656.00
2023-03-25T15:32:29.355Z,99667.88
2023-03-25T15:34:55.709Z,99670.84
2023-03-25T15:37:22.747Z,99664.13
2023-03-25T15:39:52.790Z,99651.78
2023-03-25T15:42:19.320Z,99657.69
2023-03-25T15:44:45.681Z,99650.97
2023-03-25T15:47:13.474Z,99655.06
2023-03-25T15:49:39.911Z,99653.72
2023-03-25T15:52:06.590Z,99649.44
2023-03-25T15:54:32.965Z,99650.78
2023-03-25T15:56:59.662Z,99659.91
2023-03-25T15:59:26.214Z,99652.16
2023-03-25T16:01:52.696Z,99649.72
2023-03-25T16:04:19.327Z,99656.47
2023-03-25T16:06:46.224Z,99665.09
2023-03-25T16:09:12.588Z,99662.69
2023-03-25T16:11:38.981Z,99661.59
2023-03-25T16:14:05.357Z,99652.22
2023-03-25T16:16:31.784Z,99658.72
2023-03-25T16:18:58.322Z,99658.44
2023-03-25T16:21:24.605Z,99655.25
2023-03-25T16:23:51.267Z,99656.03
2023-03-25T16:26:18.028Z,99654.97
2023-03-25T16:28:44.436Z,99648.25
2023-03-25T16:31:10.804Z,99649.88
2023-03-25T16:33:37.451Z,99641.78
2023-03-25T16:36:04.264Z,99653.91
2023-03-25T16:44:21.891Z,99655.28
2023-03-25T16:46:48.239Z,99664.44
2023-03-25T16:49:14.578Z,99665.00
2023-03-25T16:51:40.914Z,99683.03
2023-03-25T16:54:07.202Z,99677.91
2023-03-25T16:56:33.664Z,99685.47
2023-03-25T16:59:00.288Z,99680.31
2023-03-25T17:01:27.144Z,99674.63
2023-03-25T17:03:53.482Z,99678.16
2023-03-25T17:06:20.147Z,99681.69
2023-03-25T17:08:46.492Z,99680.09
2023-03-25T17:11:12.894Z,99682.28
2023-03-25T17:13:39.330Z,99683.31
2023-03-25T17:16:06.050Z,99686.31
2023-03-25T17:18:33.462Z,99694.09
2023-03-25T17:20:59.813Z,99694.63
2023-03-25T17:23:26.173Z,99704.59
2023-03-25T17:25:52.511Z,99705.09
2023-03-25T17:28:18.979Z,99704.56
2023-03-25T17:30:45.703Z,99712.09
2023-03-25T17:33:12.327Z,99706.44
2023-03-25T17:35:38.707Z,99701.56
2023-03-25T17:38:05.750Z,99702.91
2023-03-25T17:40:32.186Z,99709.63
2023-03-25T17:42:58.538Z,99702.88
2023-03-25T17:45:25.234Z,99702.34
2023-03-25T17:47:51.911Z,99702.81
2023-03-25T17:50:18.538Z,99700.66
2023-03-25T17:52:45.221Z,99714.38
2023-03-25T17:55:11.576Z,99714.91
2023-03-25T17:57:38.174Z,99722.16
2023-03-25T18:00:04.562Z,99709.22
2023-03-25T18:02:30.935Z,99722.16
2023-03-25T18:04:57.646Z,99722.41
2023-03-25T18:07:23.977Z,99725.59
2023-03-25T18:09:50.306Z,99726.69
2023-03-25T18:12:16.573Z,99718.03
2023-03-25T18:14:43.265Z,99715.34
2023-03-25T18:17:09.640Z,99718.03
2023-03-25T18:19:36.222Z,99716.16
2023-03-25T18:22:13.870Z,99710.50
2023-03-25T18:24:45.567Z,99708.59
2023-03-25T18:27:12.110Z,99705.38
2023-03-25T18:29:38.671Z,99701.88
2023-03-25T18:32:05.394Z,99699.16
2023-03-25T18:34:31.784Z,99700.75
2023-03-25T18:36:58.112Z,99706.97
2023-03-25T18:39:25.014Z,99701.84
2023-03-25T18:41:51.480Z,99708.03
2023-03-25T18:44:17.951Z,99714.22
2023-03-25T18:46:44.233Z,99709.91
2023-03-25T18:49:10.899Z,99711.53
2023-03-25T18:51:37.752Z,99716.38
2023-03-25T18:54:04.190Z,99713.94
2023-03-25T18:56:30.544Z,99714.19
2023-03-25T18:58:56.890Z,99721.19
2023-03-25T19:01:23.388Z,99719.31
2023-03-25T19:03:49.881Z,99714.44
2023-03-25T19:06:16.927Z,99715.28
2023-03-25T19:08:43.572Z,99717.97
2023-03-25T19:11:19.995Z,99714.69
2023-03-25T19:13:48.616Z,99717.69
2023-03-25T19:16:14.952Z,99707.72
2023-03-25T19:18:41.507Z,99714.16
2023-03-25T19:21:07.845Z,99705.28
2023-03-25T19:23:34.457Z,99709.84
2023-03-25T19:26:00.810Z,99701.78
2023-03-25T19:28:27.182Z,99707.41
2023-03-25T19:30:53.718Z,99702.03
2023-03-25T19:33:20.444Z,99704.16
2023-03-25T19:35:46.865Z,99699.59
2023-03-25T19:38:13.281Z,99702.81
2023-03-25T19:40:39.879Z,99693.94
2023-03-25T19:43:06.703Z,99696.63
2023-03-25T19:45:33.210Z,99685.31
2023-03-25T19:47:59.518Z,99686.38
2023-03-25T19:50:26.135Z,99681.25
2023-03-25T19:52:52.450Z,99675.06
2023-03-25T19:55:19.316Z,99679.88
2023-03-25T19:57:45.961Z,99683.66
2023-03-25T20:00:12.449Z,99677.44
2023-03-25T20:02:39.580Z,99673.16
2023-03-25T20:05:06.313Z,99673.41
2023-03-25T20:07:32.689Z,99668.84
2023-03-25T20:10:06.757Z,99663.16
2023-03-25T20:12:43.314Z,99669.59
2023-03-25T20:15:10.066Z,99671.22
2023-03-25T20:17:36.500Z,99670.13
2023-03-25T20:20:03.127Z,99677.13
2023-03-25T20:22:29.788Z,99673.34
2023-03-25T20:24:56.646Z,99671.72
2023-03-25T20:27:23.269Z,99671.72
2023-03-25T20:29:49.934Z,99675.47
2023-03-25T20:32:16.708Z,99670.34
2023-03-25T20:34:43.044Z,99686.75
2023-03-25T20:37:09.342Z,99681.88
2023-03-25T20:39:36.093Z,99681.06
2023-03-25T20:42:02.821Z,99691.56
2023-03-25T20:44:29.174Z,99708.78
2023-03-25T20:46:55.663Z,99719.78
2023-03-25T20:49:21.991Z,99739.94
2023-03-25T20:51:48.500Z,99737.25
2023-03-25T20:54:15.383Z,99738.63
2023-03-25T20:56:41.731Z,99722.47
2023-03-25T20:59:08.244Z,99720.63
2023-03-25T21:01:35.049Z,99702.84
2023-03-25T21:04:01.733Z,99702.28
2023-03-25T21:06:28.678Z,99700.09
2023-03-25T21:08:55.702Z,99701.47
2023-03-25T21:11:22.929Z,99691.53
2023-03-25T21:13:49.658Z,99684.81
2023-03-25T21:16:15.989Z,99682.91
2023-03-25T21:18:42.387Z,99688.84
2023-03-25T21:21:08.851Z,99681.84
2023-03-25T21:23:35.278Z,99682.91
2023-03-25T21:26:01.619Z,99675.91
2023-03-25T21:28:28.496Z,99674.78
2023-03-25T21:30:54.821Z,99673.19
2023-03-25T21:33:21.190Z,99665.94
2023-03-25T21:35:53.809Z,99666.97
2023-03-25T21:38:28.548Z,99658.13
2023-03-25T21:40:56.099Z,99654.06
2023-03-25T21:43:22.617Z,99664.81
2023-03-25T21:45:49.116Z,99661.53
2023-03-25T21:48:15.491Z,99663.19
2023-03-25T21:50:41.907Z,99658.06
2023-03-25T21:53:08.429Z,99655.63
2023-03-25T21:55:34.734Z,99651.31
2023-03-25T21:58:01.704Z,99652.38
2023-03-25T22:00:28.241Z,99651.56
2023-03-25T22:02:54.946Z,99649.91
2023-03-25T22:05:21.434Z,99645.88
2023-03-25T22:07:47.812Z,99647.78
2023-03-25T22:10:14.170Z,99650.72
2023-03-25T22:12:40.651Z,99644.25
2023-03-25T22:15:07.087Z,99648.81
2023-03-25T22:17:33.665Z,99655.50
2023-03-25T22:20:00.068Z,99653.91
2023-03-25T22:22:26.438Z,99647.72
2023-03-25T22:24:53.033Z,99641.53
2023-03-25T22:27:19.370Z,99652.53
2023-03-25T22:29:45.849Z,99652.78
2023-03-25T22:32:12.256Z,99639.34
2023-03-25T22:34:38.655Z,99641.25
2023-03-25T22:37:04.950Z,99646.63
2023-03-25T22:39:31.695Z,99647.66
2023-03-25T22:41:58.175Z,99633.19
2023-03-25T22:44:24.482Z,99634.22
2023-03-25T22:46:50.824Z,99642.56
2023-03-25T22:49:17.174Z,99634.50
2023-03-25T22:51:43.464Z,99643.88
2023-03-25T22:54:09.878Z,99642.56
2023-03-25T22:56:36.502Z,99639.88
2023-03-25T22:59:03.459Z,99637.19
2023-03-25T23:01:29.883Z,99641.75
2023-03-25T23:03:56.223Z,99640.13
2023-03-25T23:06:22.567Z,99637.44
2023-03-25T23:08:49.307Z,99636.63
2023-03-25T23:11:16.973Z,99639.31
2023-03-25T23:13:44.960Z,99635.00
2023-03-25T23:16:11.432Z,99631.25
2023-03-25T23:18:37.882Z,99637.44
2023-03-25T23:21:04.237Z,99642.25
2023-03-25T23:23:31.082Z,99644.94
2023-03-25T23:25:57.487Z,99646.00
2023-03-25T23:28:29.959Z,99642.50
2023-03-25T23:30:56.487Z,99633.41
2023-03-25T23:33:23.070Z,99634.44
2023-03-25T23:35:49.462Z,99636.34
2023-03-25T23:38:15.900Z,99640.06
2023-03-25T23:40:42.323Z,99642.50
2023-03-25T23:43:08.957Z,99643.03
2023-03-25T23:45:35.406Z,99634.41
2023-03-25T23:48:01.866Z,99639.78
2023-03-25T23:50:28.497Z,99642.72
2023-03-25T23:52:55.127Z,99664.78
2023-03-25T23:55:21.474Z,99656.97
2023-03-25T23:57:48.059Z,99655.38
